Weather at Fort Smith Regional Airport

Public forecast

Using degrees Fahrenheit for public forecast. Weather courtesy of forecast.io.

Current aviation weather report (METAR) for Fort Smith Regional Airport

Retrieved 2022/05/27 05:53 UTC (9 minutes ago):

KFSM 270553Z AUTO 27006KT 10SM CLR 13/11 A2996 RMK AO2 SLP142 T01280106 10172 20122 401940122 51006

Aviation forecast (TAF) for Fort Smith Regional Airport

Retrieved 2022/05/27 06:22 UTC (0 seconds ago):

TAF KFSM 270520Z 2706/2806 26006KT P6SM SCT025 FM271500 32008KT P6SM SKC FM280000 VRB03KT P6SM SKC